sensor_id;sensor_type;location;lat;lon;timestamp;P1;durP1;ratioP1;P2;durP2;ratioP2
57301;SDS011;43149;50.974;18.224;2023-02-17T00:02:25;49.70;;;22.40;;
57301;SDS011;43149;50.974;18.224;2023-02-17T00:12:10;44.90;;;20.10;;
57301;SDS011;43149;50.974;18.224;2023-02-17T00:21:56;71.10;;;26.30;;
57301;SDS011;43149;50.974;18.224;2023-02-17T00:31:44;83.30;;;28.90;;
57301;SDS011;43149;50.974;18.224;2023-02-17T00:41:29;67.30;;;27.90;;
57301;SDS011;43149;50.974;18.224;2023-02-17T00:51:14;57.50;;;21.60;;
57301;SDS011;43149;50.974;18.224;2023-02-17T01:00:58;57.20;;;23.50;;
57301;SDS011;43149;50.974;18.224;2023-02-17T01:10:43;48.30;;;20.00;;
57301;SDS011;43149;50.974;18.224;2023-02-17T01:20:35;71.20;;;31.60;;
57301;SDS011;43149;50.974;18.224;2023-02-17T01:30:20;56.20;;;23.50;;
57301;SDS011;43149;50.974;18.224;2023-02-17T01:40:04;52.50;;;22.80;;
57301;SDS011;43149;50.974;18.224;2023-02-17T01:50:08;78.90;;;27.20;;
57301;SDS011;43149;50.974;18.224;2023-02-17T01:59:55;59.40;;;23.30;;
57301;SDS011;43149;50.974;18.224;2023-02-17T02:09:42;40.50;;;17.90;;
57301;SDS011;43149;50.974;18.224;2023-02-17T02:42:26;59.80;;;26.50;;
57301;SDS011;43149;50.974;18.224;2023-02-17T02:52:26;51.40;;;18.00;;
57301;SDS011;43149;50.974;18.224;2023-02-17T03:02:58;54.10;;;22.90;;
57301;SDS011;43149;50.974;18.224;2023-02-17T03:13:13;48.00;;;22.20;;
57301;SDS011;43149;50.974;18.224;2023-02-17T03:23:00;48.50;;;18.90;;
57301;SDS011;43149;50.974;18.224;2023-02-17T03:32:44;28.10;;;13.10;;
57301;SDS011;43149;50.974;18.224;2023-02-17T03:42:28;41.70;;;19.00;;
57301;SDS011;43149;50.974;18.224;2023-02-17T03:52:12;46.60;;;20.10;;
57301;SDS011;43149;50.974;18.224;2023-02-17T04:01:56;62.80;;;20.40;;
57301;SDS011;43149;50.974;18.224;2023-02-17T04:11:40;79.70;;;22.60;;
57301;SDS011;43149;50.974;18.224;2023-02-17T04:21:24;44.80;;;16.10;;
57301;SDS011;43149;50.974;18.224;2023-02-17T04:31:08;29.90;;;16.20;;
57301;SDS011;43149;50.974;18.224;2023-02-17T04:40:55;42.10;;;20.60;;
57301;SDS011;43149;50.974;18.224;2023-02-17T04:50:39;50.10;;;20.70;;
57301;SDS011;43149;50.974;18.224;2023-02-17T05:00:24;51.40;;;13.20;;
57301;SDS011;43149;50.974;18.224;2023-02-17T05:10:10;62.90;;;17.90;;
57301;SDS011;43149;50.974;18.224;2023-02-17T05:19:56;47.60;;;18.90;;
57301;SDS011;43149;50.974;18.224;2023-02-17T05:29:40;32.70;;;14.30;;
57301;SDS011;43149;50.974;18.224;2023-02-17T05:39:24;37.40;;;14.70;;
57301;SDS011;43149;50.974;18.224;2023-02-17T05:49:07;42.70;;;20.40;;
57301;SDS011;43149;50.974;18.224;2023-02-17T05:58:50;29.70;;;15.40;;
57301;SDS011;43149;50.974;18.224;2023-02-17T06:08:34;44.10;;;17.60;;
57301;SDS011;43149;50.974;18.224;2023-02-17T06:18:18;36.90;;;14.30;;
57301;SDS011;43149;50.974;18.224;2023-02-17T06:28:02;29.10;;;14.10;;
57301;SDS011;43149;50.974;18.224;2023-02-17T06:37:48;25.20;;;13.20;;
57301;SDS011;43149;50.974;18.224;2023-02-17T06:47:32;34.40;;;16.50;;
57301;SDS011;43149;50.974;18.224;2023-02-17T06:57:16;18.90;;;8.10;;
57301;SDS011;43149;50.974;18.224;2023-02-17T07:07:02;42.80;;;16.70;;
57301;SDS011;43149;50.974;18.224;2023-02-17T07:16:48;41.30;;;19.40;;
57301;SDS011;43149;50.974;18.224;2023-02-17T07:26:36;43.10;;;17.10;;
57301;SDS011;43149;50.974;18.224;2023-02-17T07:36:21;33.00;;;19.70;;
57301;SDS011;43149;50.974;18.224;2023-02-17T07:46:10;48.50;;;21.20;;
57301;SDS011;43149;50.974;18.224;2023-02-17T07:55:56;36.10;;;18.50;;
57301;SDS011;43149;50.974;18.224;2023-02-17T08:05:39;46.00;;;22.10;;
57301;SDS011;43149;50.974;18.224;2023-02-17T08:16:03;48.70;;;17.90;;
57301;SDS011;43149;50.974;18.224;2023-02-17T08:25:47;46.30;;;18.70;;
57301;SDS011;43149;50.974;18.224;2023-02-17T08:35:30;34.10;;;19.20;;
57301;SDS011;43149;50.974;18.224;2023-02-17T08:45:14;40.00;;;16.90;;
57301;SDS011;43149;50.974;18.224;2023-02-17T08:55:00;53.60;;;23.10;;
57301;SDS011;43149;50.974;18.224;2023-02-17T09:04:45;38.30;;;20.30;;
57301;SDS011;43149;50.974;18.224;2023-02-17T09:14:31;15.70;;;9.00;;
57301;SDS011;43149;50.974;18.224;2023-02-17T09:24:16;24.90;;;12.00;;
57301;SDS011;43149;50.974;18.224;2023-02-17T09:34:03;44.70;;;21.70;;
57301;SDS011;43149;50.974;18.224;2023-02-17T09:43:50;31.60;;;17.50;;
57301;SDS011;43149;50.974;18.224;2023-02-17T10:13:47;39.80;;;19.50;;
57301;SDS011;43149;50.974;18.224;2023-02-17T10:23:46;28.60;;;15.10;;
57301;SDS011;43149;50.974;18.224;2023-02-17T10:34:49;36.80;;;18.30;;
57301;SDS011;43149;50.974;18.224;2023-02-17T10:44:20;30.30;;;14.80;;
57301;SDS011;43149;50.974;18.224;2023-02-17T11:04:43;23.50;;;14.50;;
57301;SDS011;43149;50.974;18.224;2023-02-17T11:14:52;26.40;;;13.10;;
57301;SDS011;43149;50.974;18.224;2023-02-17T11:25:02;39.40;;;17.00;;
57301;SDS011;43149;50.974;18.224;2023-02-17T11:36:20;42.00;;;19.60;;
57301;SDS011;43149;50.974;18.224;2023-02-17T11:57:47;34.00;;;16.40;;
57301;SDS011;43149;50.974;18.224;2023-02-17T12:08:26;16.40;;;11.50;;
57301;SDS011;43149;50.974;18.224;2023-02-17T12:20:01;25.90;;;14.20;;
57301;SDS011;43149;50.974;18.224;2023-02-17T12:31:20;31.40;;;17.10;;
57301;SDS011;43149;50.974;18.224;2023-02-17T12:42:20;23.10;;;13.40;;
57301;SDS011;43149;50.974;18.224;2023-02-17T12:52:50;15.00;;;7.00;;
57301;SDS011;43149;50.974;18.224;2023-02-17T13:02:58;23.00;;;8.70;;
57301;SDS011;43149;50.974;18.224;2023-02-17T13:13:12;20.50;;;7.30;;
57301;SDS011;43149;50.974;18.224;2023-02-17T13:23:34;16.90;;;7.20;;
57301;SDS011;43149;50.974;18.224;2023-02-17T13:33:39;9.50;;;6.00;;
57301;SDS011;43149;50.974;18.224;2023-02-17T13:44:23;37.90;;;6.00;;
57301;SDS011;43149;50.974;18.224;2023-02-17T13:54:36;14.70;;;6.80;;
57301;SDS011;43149;50.974;18.224;2023-02-17T14:04:27;8.20;;;6.20;;
57301;SDS011;43149;50.974;18.224;2023-02-17T14:14:18;12.00;;;7.70;;
57301;SDS011;43149;50.974;18.224;2023-02-17T14:19:20;22.50;;;13.40;;
57301;SDS011;43149;50.974;18.224;2023-02-17T14:29:20;21.80;;;10.40;;
57301;SDS011;43149;50.974;18.224;2023-02-17T14:39:32;17.40;;;9.30;;
57301;SDS011;43149;50.974;18.224;2023-02-17T14:49:16;12.60;;;8.10;;
57301;SDS011;43149;50.974;18.224;2023-02-17T14:59:02;13.20;;;8.40;;
57301;SDS011;43149;50.974;18.224;2023-02-17T15:08:47;11.40;;;9.10;;
57301;SDS011;43149;50.974;18.224;2023-02-17T15:18:35;11.90;;;9.60;;
57301;SDS011;43149;50.974;18.224;2023-02-17T15:28:20;16.80;;;10.30;;
57301;SDS011;43149;50.974;18.224;2023-02-17T15:38:13;14.10;;;8.50;;
57301;SDS011;43149;50.974;18.224;2023-02-17T15:48:27;18.30;;;10.10;;
57301;SDS011;43149;50.974;18.224;2023-02-17T15:58:13;15.80;;;9.10;;
57301;SDS011;43149;50.974;18.224;2023-02-17T16:08:00;13.10;;;8.90;;
57301;SDS011;43149;50.974;18.224;2023-02-17T16:12:54;22.60;;;14.70;;
57301;SDS011;43149;50.974;18.224;2023-02-17T16:22:42;12.30;;;9.00;;
57301;SDS011;43149;50.974;18.224;2023-02-17T16:32:26;9.00;;;6.30;;
57301;SDS011;43149;50.974;18.224;2023-02-17T16:42:10;7.90;;;7.10;;
57301;SDS011;43149;50.974;18.224;2023-02-17T16:51:58;16.90;;;7.60;;
57301;SDS011;43149;50.974;18.224;2023-02-17T17:01:44;7.80;;;5.90;;
57301;SDS011;43149;50.974;18.224;2023-02-17T17:11:30;20.10;;;9.30;;
57301;SDS011;43149;50.974;18.224;2023-02-17T17:21:18;11.00;;;6.80;;
57301;SDS011;43149;50.974;18.224;2023-02-17T17:31:17;13.80;;;8.70;;
57301;SDS011;43149;50.974;18.224;2023-02-17T17:41:23;12.50;;;4.90;;
57301;SDS011;43149;50.974;18.224;2023-02-17T17:51:12;14.40;;;5.20;;
57301;SDS011;43149;50.974;18.224;2023-02-17T18:00:59;10.60;;;6.20;;
57301;SDS011;43149;50.974;18.224;2023-02-17T18:10:45;21.50;;;8.30;;
57301;SDS011;43149;50.974;18.224;2023-02-17T18:20:29;15.80;;;9.00;;
57301;SDS011;43149;50.974;18.224;2023-02-17T18:30:16;15.10;;;7.10;;
57301;SDS011;43149;50.974;18.224;2023-02-17T18:40:01;30.10;;;12.40;;
57301;SDS011;43149;50.974;18.224;2023-02-17T18:49:49;12.20;;;7.40;;
57301;SDS011;43149;50.974;18.224;2023-02-17T18:59:35;13.50;;;7.00;;
57301;SDS011;43149;50.974;18.224;2023-02-17T19:09:35;15.00;;;9.30;;
57301;SDS011;43149;50.974;18.224;2023-02-17T19:19:24;32.40;;;10.30;;
57301;SDS011;43149;50.974;18.224;2023-02-17T19:29:11;16.90;;;6.60;;
57301;SDS011;43149;50.974;18.224;2023-02-17T19:38:55;10.20;;;8.40;;
57301;SDS011;43149;50.974;18.224;2023-02-17T19:48:42;24.70;;;14.10;;
57301;SDS011;43149;50.974;18.224;2023-02-17T19:58:45;15.40;;;10.20;;
57301;SDS011;43149;50.974;18.224;2023-02-17T20:08:35;14.30;;;6.80;;
57301;SDS011;43149;50.974;18.224;2023-02-17T20:18:23;19.20;;;13.00;;
57301;SDS011;43149;50.974;18.224;2023-02-17T20:28:10;14.10;;;11.80;;
57301;SDS011;43149;50.974;18.224;2023-02-17T20:37:54;12.30;;;8.90;;
57301;SDS011;43149;50.974;18.224;2023-02-17T20:47:38;17.50;;;8.30;;
57301;SDS011;43149;50.974;18.224;2023-02-17T20:57:26;12.30;;;6.00;;
57301;SDS011;43149;50.974;18.224;2023-02-17T21:07:09;11.80;;;10.20;;
57301;SDS011;43149;50.974;18.224;2023-02-17T21:16:53;13.80;;;8.90;;
57301;SDS011;43149;50.974;18.224;2023-02-17T21:33:56;13.10;;;8.50;;
57301;SDS011;43149;50.974;18.224;2023-02-17T21:43:44;10.60;;;7.80;;
57301;SDS011;43149;50.974;18.224;2023-02-17T21:53:47;9.70;;;5.90;;
57301;SDS011;43149;50.974;18.224;2023-02-17T22:03:31;11.20;;;4.60;;
57301;SDS011;43149;50.974;18.224;2023-02-17T22:13:14;8.40;;;4.50;;
57301;SDS011;43149;50.974;18.224;2023-02-17T22:22:57;2.10;;;1.10;;
57301;SDS011;43149;50.974;18.224;2023-02-17T22:32:41;6.90;;;4.00;;
57301;SDS011;43149;50.974;18.224;2023-02-17T22:42:25;21.00;;;3.30;;
57301;SDS011;43149;50.974;18.224;2023-02-17T22:52:09;8.70;;;3.80;;
57301;SDS011;43149;50.974;18.224;2023-02-17T23:01:58;4.10;;;3.70;;
57301;SDS011;43149;50.974;18.224;2023-02-17T23:11:42;6.60;;;2.60;;
57301;SDS011;43149;50.974;18.224;2023-02-17T23:21:37;1.40;;;0.80;;
57301;SDS011;43149;50.974;18.224;2023-02-17T23:31:21;2.40;;;0.60;;
57301;SDS011;43149;50.974;18.224;2023-02-17T23:48:22;0.70;;;0.70;;
57301;SDS011;43149;50.974;18.224;2023-02-17T23:58:24;0.60;;;0.60;;
